KTPA/TPA METAR and TAF weather

Enter ICAO airport designator
Station Type Date Time Source
KTPA METAR 2019/12/06 01:53 UTC NOAA

KTPA 060153Z 02004KT 10SM BKN320 14/07 A3019 RMK AO2 SLP222 T01390067


Station Type Date Time Source
KTPA Decoded METAR 2019/12/06 01:53 UTC NOAA

TAMPA INTERNATIONAL AIRPORT , FL, United States (KTPA) 27-58N 082-32W 11M
Dec 05, 2019 - 08:53 PM EST / 2019.12.06 0153 UTC
Wind: from the NNE (020 degrees) at 5 MPH (4 KT):0
Visibility: 10 mile(s):0
Sky conditions: mostly cloudy
Temperature: 57.0 F (13.9 C)
Dew Point: 44.1 F (6.7 C)
Relative Humidity: 61%
Pressure (altimeter): 30.19 in. Hg (1022 hPa)
ob: KTPA 060153Z 02004KT 10SM BKN320 14/07 A3019 RMK AO2 SLP222 T01390067
cycle: 2

Station Type Date Time Source
KTPA TAF 2019/12/05 21:18 UTC NOAA

TAF
AMD KTPA 052115Z 0521/0624 VRB03KT P6SM BKN250
FM061800 22007KT P6SM SCT250

Example: see airport list